createdAt,value
2023-04-22T00:00:09.749Z,99735.50
2023-04-22T00:02:38.848Z,99730.28
2023-04-22T00:05:09.845Z,99729.63
2023-04-22T00:07:37.993Z,99729.88
2023-04-22T00:10:06.528Z,99734.09
2023-04-22T00:12:34.327Z,99728.88
2023-04-22T00:15:02.379Z,99728.97
2023-04-22T00:17:30.274Z,99729.88
2023-04-22T00:19:58.336Z,99736.59
2023-04-22T00:22:27.433Z,99730.56
2023-04-22T00:24:55.307Z,99731.38
2023-04-22T00:27:23.129Z,99737.88
2023-04-22T00:29:51.419Z,99736.03
2023-04-22T00:32:22.396Z,99731.91
2023-04-22T00:34:50.379Z,99729.22
2023-04-22T00:37:18.281Z,99730.72
2023-04-22T00:39:47.480Z,99723.50
2023-04-22T00:42:15.930Z,99723.50
2023-04-22T00:44:43.766Z,99723.44
2023-04-22T00:47:11.797Z,99719.63
2023-04-22T00:49:40.858Z,99720.66
2023-04-22T00:52:09.297Z,99720.00
2023-04-22T00:54:37.324Z,99720.00
2023-04-22T00:57:07.024Z,99723.50
2023-04-22T00:59:35.668Z,99714.78
2023-04-22T01:02:05.360Z,99714.69
2023-04-22T01:04:36.552Z,99718.13
2023-04-22T01:07:04.492Z,99714.69
2023-04-22T01:09:32.699Z,99713.03
2023-04-22T01:12:01.515Z,99708.91
2023-04-22T01:14:30.977Z,99714.00
2023-04-22T01:16:58.863Z,99718.56
2023-04-22T01:19:29.525Z,99714.44
2023-04-22T01:21:59.807Z,99720.50
2023-04-22T01:24:29.256Z,99719.84
2023-04-22T01:26:57.357Z,99719.91
2023-04-22T01:29:25.684Z,99718.38
2023-04-22T01:31:53.928Z,99720.41
2023-04-22T01:34:21.950Z,99727.78
2023-04-22T01:36:50.574Z,99724.44
2023-04-22T01:39:19.736Z,99723.09
2023-04-22T01:41:50.010Z,99714.38
2023-04-22T01:44:21.514Z,99713.59
2023-04-22T01:46:49.621Z,99715.13
2023-04-22T01:49:17.940Z,99719.41
2023-04-22T01:51:45.792Z,99711.34
2023-04-22T01:54:14.703Z,99718.81
2023-04-22T01:56:44.237Z,99718.13
2023-04-22T01:59:14.353Z,99720.38
2023-04-22T02:01:42.408Z,99725.09
2023-04-22T02:04:10.319Z,99724.69
2023-04-22T02:06:38.109Z,99716.94
2023-04-22T02:09:08.251Z,99725.44
2023-04-22T02:11:36.527Z,99726.19
2023-04-22T02:14:04.723Z,99729.63
2023-04-22T02:16:34.844Z,99729.81
2023-04-22T02:19:02.612Z,99726.53
2023-04-22T02:21:32.482Z,99726.38
2023-04-22T02:24:00.208Z,99726.38
2023-04-22T02:26:30.999Z,99723.94
2023-04-22T02:29:59.026Z,99724.84
2023-04-22T02:32:29.181Z,99716.44
2023-04-22T02:34:56.948Z,99722.66
2023-04-22T02:37:24.604Z,99722.13
2023-04-22T02:39:52.289Z,99724.47
2023-04-22T02:42:19.919Z,99726.91
2023-04-22T02:44:47.843Z,99736.88
2023-04-22T02:47:15.555Z,99736.97
2023-04-22T02:49:44.596Z,99741.00
2023-04-22T02:52:12.518Z,99739.59
2023-04-22T02:54:40.299Z,99741.75
2023-04-22T02:57:08.109Z,99743.91
2023-04-22T02:59:36.125Z,99743.97
2023-04-22T03:02:06.705Z,99741.53
2023-04-22T03:04:56.250Z,99752.84
2023-04-22T03:07:24.230Z,99746.66
2023-04-22T03:09:51.921Z,99746.66
2023-04-22T03:12:20.221Z,99751.44
2023-04-22T03:14:48.078Z,99747.75
2023-04-22T03:17:16.276Z,99752.16
2023-04-22T03:19:44.176Z,99741.03
2023-04-22T03:22:13.955Z,99747.31
2023-04-22T03:24:41.813Z,99742.41
2023-04-22T03:27:11.139Z,99738.88
2023-04-22T03:29:39.149Z,99737.19
2023-04-22T03:32:07.121Z,99732.00
2023-04-22T03:34:37.404Z,99731.47
2023-04-22T03:37:07.137Z,99725.13
2023-04-22T03:39:36.469Z,99731.25
2023-04-22T03:42:04.890Z,99731.25
2023-04-22T03:44:34.035Z,99726.13
2023-04-22T03:47:03.206Z,99723.75
2023-04-22T03:49:37.016Z,99724.75
2023-04-22T03:52:05.374Z,99725.13
2023-04-22T03:54:36.035Z,99733.31
2023-04-22T03:57:03.725Z,99726.19
2023-04-22T03:59:31.506Z,99726.25
2023-04-22T04:01:59.324Z,99728.78
2023-04-22T04:04:28.149Z,99722.66
2023-04-22T04:07:00.347Z,99725.25
2023-04-22T04:09:29.013Z,99728.16
2023-04-22T04:11:59.079Z,99727.78
2023-04-22T04:14:31.063Z,99733.34
2023-04-22T04:16:59.843Z,99726.34
2023-04-22T04:19:31.012Z,99725.72
2023-04-22T04:21:59.101Z,99718.44
2023-04-22T04:24:28.755Z,99712.28
2023-04-22T04:27:05.055Z,99711.44
2023-04-22T04:29:41.549Z,99707.94
2023-04-22T04:32:14.776Z,99708.91
2023-04-22T04:34:43.827Z,99708.69
2023-04-22T04:37:14.668Z,99708.84
2023-04-22T04:39:55.564Z,99709.97
2023-04-22T04:42:30.328Z,99717.59
2023-04-22T04:45:03.508Z,99712.50
2023-04-22T04:47:33.836Z,99711.44
2023-04-22T04:50:12.498Z,99707.00
2023-04-22T04:52:40.730Z,99709.47
2023-04-22T04:55:09.586Z,99709.81
2023-04-22T04:57:39.472Z,99696.47
2023-04-22T05:00:08.861Z,99702.34
2023-04-22T05:02:36.967Z,99703.19
2023-04-22T05:05:05.210Z,99706.47
2023-04-22T05:07:33.334Z,99715.69
2023-04-22T05:10:02.305Z,99716.38
2023-04-22T05:12:30.725Z,99719.47
2023-04-22T05:15:00.337Z,99722.69
2023-04-22T05:17:29.364Z,99722.38
2023-04-22T05:19:57.735Z,99735.97
2023-04-22T05:22:25.764Z,99727.84
2023-04-22T05:24:54.905Z,99733.56
2023-04-22T05:27:23.350Z,99729.72
2023-04-22T05:29:51.445Z,99732.44
2023-04-22T05:32:27.518Z,99736.16
2023-04-22T05:34:55.464Z,99744.31
2023-04-22T05:37:23.688Z,99744.53
2023-04-22T05:39:53.015Z,99740.41
2023-04-22T05:42:22.431Z,99746.63
2023-04-22T05:44:51.189Z,99749.13
2023-04-22T05:47:19.362Z,99753.25
2023-04-22T05:49:48.780Z,99743.28
2023-04-22T05:52:20.857Z,99746.28
2023-04-22T05:54:59.836Z,99746.84
2023-04-22T05:57:28.425Z,99750.03
2023-04-22T05:59:56.328Z,99754.06
2023-04-22T06:02:27.839Z,99753.97
2023-04-22T06:04:59.816Z,99749.22
2023-04-22T06:07:29.051Z,99753.25
2023-04-22T06:10:05.175Z,99747.63
2023-04-22T06:12:34.719Z,99744.66
2023-04-22T06:15:02.986Z,99745.25
2023-04-22T06:17:31.944Z,99745.63
2023-04-22T06:20:01.720Z,99738.28
2023-04-22T06:22:31.819Z,99736.19
2023-04-22T06:24:59.504Z,99731.13
2023-04-22T06:27:27.888Z,99737.59
2023-04-22T06:29:55.607Z,99735.56
2023-04-22T06:32:33.019Z,99736.81
2023-04-22T06:35:02.376Z,99735.69
2023-04-22T06:37:30.594Z,99729.13
2023-04-22T06:39:58.430Z,99745.34
2023-04-22T06:42:41.873Z,99734.38
2023-04-22T06:45:28.777Z,99734.03
2023-04-22T06:48:15.018Z,99738.03
2023-04-22T06:51:07.058Z,99730.75
2023-04-22T06:53:35.018Z,99732.47
2023-04-22T06:56:02.853Z,99730.25
2023-04-22T06:58:31.029Z,99725.72
2023-04-22T07:00:59.327Z,99719.59
2023-04-22T07:03:28.009Z,99723.50
2023-04-22T07:06:02.966Z,99717.72
2023-04-22T07:08:35.132Z,99722.00
2023-04-22T07:11:03.645Z,99727.03
2023-04-22T07:14:02.769Z,99725.13
2023-04-22T07:16:34.530Z,99725.75
2023-04-22T07:19:02.647Z,99732.72
2023-04-22T07:21:32.631Z,99720.09
2023-04-22T07:24:02.389Z,99714.38
2023-04-22T07:26:34.532Z,99708.94
2023-04-22T07:29:02.445Z,99712.72
2023-04-22T07:31:31.840Z,99694.66
2023-04-22T07:33:59.918Z,99691.69
2023-04-22T07:36:28.231Z,99693.50
2023-04-22T07:38:56.090Z,99679.63
2023-04-22T07:41:25.151Z,99681.84
2023-04-22T07:43:52.881Z,99680.94
2023-04-22T07:46:21.059Z,99685.47
2023-04-22T07:48:49.439Z,99695.53
2023-04-22T07:51:17.975Z,99684.69
2023-04-22T07:53:45.711Z,99689.03
2023-04-22T07:56:16.849Z,99684.09
2023-04-22T07:58:46.079Z,99683.03
2023-04-22T08:01:13.788Z,99685.91
2023-04-22T08:03:41.883Z,99690.38
2023-04-22T08:06:09.833Z,99696.13
2023-04-22T08:08:37.714Z,99683.63
2023-04-22T08:11:05.939Z,99688.28
2023-04-22T08:13:34.600Z,99686.16
2023-04-22T08:16:04.088Z,99687.44
2023-04-22T08:18:31.983Z,99690.38
2023-04-22T08:21:00.231Z,99684.22
2023-04-22T08:23:28.653Z,99687.91
2023-04-22T08:25:56.751Z,99678.69
2023-04-22T08:28:24.519Z,99676.72
2023-04-22T08:30:52.248Z,99677.56
2023-04-22T08:33:21.562Z,99676.59
2023-04-22T08:35:49.857Z,99673.28
2023-04-22T08:38:17.565Z,99679.09
2023-04-22T08:40:47.385Z,99678.75
2023-04-22T08:43:16.588Z,99665.59
2023-04-22T08:45:46.001Z,99670.13
2023-04-22T08:48:14.520Z,99662.34
2023-04-22T08:50:43.946Z,99670.81
2023-04-22T08:53:12.213Z,99662.50
2023-04-22T08:55:41.562Z,99658.72
2023-04-22T08:58:09.805Z,99660.47
2023-04-22T09:00:37.996Z,99645.84
2023-04-22T09:03:07.693Z,99634.28
2023-04-22T09:05:38.515Z,99637.03
2023-04-22T09:08:08.823Z,99638.53
2023-04-22T09:10:39.140Z,99641.88
2023-04-22T09:13:07.827Z,99637.25
2023-04-22T09:15:35.819Z,99633.66
2023-04-22T09:18:05.511Z,99627.34
2023-04-22T09:20:33.222Z,99631.47
2023-04-22T09:23:04.360Z,99644.88
2023-04-22T09:25:36.332Z,99633.00
2023-04-22T09:28:04.511Z,99639.84
2023-04-22T09:30:34.132Z,99643.22
2023-04-22T09:33:04.287Z,99630.69
2023-04-22T09:35:33.765Z,99631.63
2023-04-22T09:38:03.130Z,99638.59
2023-04-22T09:40:33.284Z,99635.25
2023-04-22T09:43:03.041Z,99620.00
2023-04-22T09:45:32.984Z,99622.81
2023-04-22T09:48:04.131Z,99622.19
2023-04-22T09:50:31.874Z,99613.50
2023-04-22T09:53:01.470Z,99618.28
2023-04-22T09:55:31.741Z,99608.84
2023-04-22T09:58:07.473Z,99613.03
2023-04-22T10:00:37.779Z,99608.19
2023-04-22T10:03:08.032Z,99597.06
2023-04-22T10:05:38.794Z,99588.88
2023-04-22T10:08:08.175Z,99584.88
2023-04-22T10:10:36.782Z,99585.13
2023-04-22T10:13:06.914Z,99578.13
2023-04-22T10:15:37.607Z,99572.97
2023-04-22T10:18:08.811Z,99578.00
2023-04-22T10:20:38.831Z,99577.88
2023-04-22T10:23:13.305Z,99580.91
2023-04-22T10:25:41.733Z,99578.16
2023-04-22T10:28:12.145Z,99571.72
2023-04-22T10:30:41.161Z,99578.47
2023-04-22T10:33:42.032Z,99575.97
2023-04-22T10:36:16.625Z,99573.09
2023-04-22T10:39:18.082Z,99575.13
2023-04-22T10:41:53.576Z,99560.59
2023-04-22T10:44:23.596Z,99560.47
2023-04-22T10:46:59.630Z,99555.63
2023-04-22T10:49:30.285Z,99549.94
2023-04-22T10:52:01.091Z,99556.53
2023-04-22T10:54:58.410Z,99554.16
2023-04-22T10:57:37.827Z,99549.81
2023-04-22T11:00:25.529Z,99543.75
2023-04-22T11:02:56.127Z,99536.41
2023-04-22T11:05:27.176Z,99537.63
2023-04-22T11:07:56.733Z,99537.00
2023-04-22T11:10:37.227Z,99525.56
2023-04-22T11:13:07.066Z,99526.03
2023-04-22T11:15:38.662Z,99531.34
2023-04-22T11:18:11.062Z,99528.66
2023-04-22T11:20:39.088Z,99524.56
2023-04-22T11:23:07.076Z,99521.59
2023-04-22T11:25:34.782Z,99511.75
2023-04-22T11:28:02.600Z,99515.78
2023-04-22T11:30:31.562Z,99525.94
2023-04-22T11:33:01.892Z,99525.91
2023-04-22T11:35:32.612Z,99512.59
2023-04-22T11:38:02.703Z,99510.78
2023-04-22T11:40:35.374Z,99515.78
2023-04-22T11:43:07.072Z,99506.81
2023-04-22T11:45:36.259Z,99508.72
2023-04-22T11:48:07.701Z,99498.25
2023-04-22T11:50:36.989Z,99503.66
2023-04-22T11:53:06.061Z,99506.06
2023-04-22T11:55:36.484Z,99511.91
2023-04-22T11:58:08.350Z,99497.56
2023-04-22T12:00:38.034Z,99504.72
2023-04-22T12:03:15.265Z,99516.28
2023-04-22T12:05:44.950Z,99498.16
2023-04-22T12:08:14.509Z,99498.47
2023-04-22T12:10:44.169Z,99496.16
2023-04-22T12:13:18.605Z,99492.69
2023-04-22T12:15:47.102Z,99489.72
2023-04-22T12:18:16.143Z,99496.63
2023-04-22T12:20:44.166Z,99507.19
2023-04-22T12:23:15.835Z,99506.69
2023-04-22T12:25:44.960Z,99515.13
2023-04-22T12:28:14.225Z,99517.25
2023-04-22T12:30:42.327Z,99518.06
2023-04-22T12:33:10.277Z,99532.41
2023-04-22T12:35:39.432Z,99529.59
2023-04-22T12:38:07.482Z,99540.13
2023-04-22T12:40:35.196Z,99541.97
2023-04-22T12:43:05.967Z,99539.41
2023-04-22T12:45:34.009Z,99548.19
2023-04-22T12:48:02.399Z,99546.50
2023-04-22T12:50:30.299Z,99543.72
2023-04-22T12:52:59.378Z,99540.22
2023-04-22T12:55:27.447Z,99545.41
2023-04-22T12:57:55.744Z,99541.31
2023-04-22T13:00:24.340Z,99544.78
2023-04-22T13:02:52.731Z,99544.78
2023-04-22T13:05:21.584Z,99540.66
2023-04-22T13:07:59.675Z,99555.00
2023-04-22T13:10:35.712Z,99559.88
2023-04-22T13:13:16.671Z,99563.38
2023-04-22T13:15:45.978Z,99567.94
2023-04-22T13:18:13.759Z,99571.84
2023-04-22T13:20:42.413Z,99569.88
2023-04-22T13:23:10.670Z,99563.22
2023-04-22T13:25:39.843Z,99578.75
2023-04-22T13:28:07.723Z,99568.63
2023-04-22T13:30:35.477Z,99568.50
2023-04-22T13:33:03.442Z,99574.06
2023-04-22T13:35:32.064Z,99578.22
2023-04-22T13:38:00.160Z,99581.13
2023-04-22T13:40:28.231Z,99583.75
2023-04-22T13:42:57.565Z,99591.06
2023-04-22T13:45:26.130Z,99571.38
2023-04-22T13:47:54.865Z,99576.41
2023-04-22T13:50:23.752Z,99583.19
2023-04-22T13:52:51.555Z,99581.25
2023-04-22T13:55:19.501Z,99578.78
2023-04-22T13:57:47.623Z,99590.00
2023-04-22T14:00:17.684Z,99591.53
2023-04-22T14:02:45.678Z,99596.22
2023-04-22T14:05:14.084Z,99594.69
2023-04-22T14:07:41.869Z,99589.69
2023-04-22T14:10:12.062Z,99591.22
2023-04-22T14:12:40.677Z,99581.66
2023-04-22T14:15:10.923Z,99583.31
2023-04-22T14:17:40.252Z,99574.19
2023-04-22T14:20:11.043Z,99572.50
2023-04-22T14:22:39.470Z,99578.59
2023-04-22T14:25:08.558Z,99568.91
2023-04-22T14:27:36.559Z,99569.72
2023-04-22T14:30:05.792Z,99561.56
2023-04-22T14:32:34.103Z,99567.09
2023-04-22T14:35:03.523Z,99574.16
2023-04-22T14:37:32.144Z,99573.19
2023-04-22T14:40:00.032Z,99578.31
2023-04-22T14:42:28.931Z,99575.81
2023-04-22T14:44:56.668Z,99574.69
2023-04-22T14:47:24.525Z,99583.94
2023-04-22T14:49:53.734Z,99582.63
2023-04-22T14:52:23.192Z,99579.72
2023-04-22T14:54:52.185Z,99585.25
2023-04-22T14:57:20.004Z,99584.53
2023-04-22T14:59:48.065Z,99582.72
2023-04-22T15:02:16.812Z,99588.56
2023-04-22T15:04:45.264Z,99581.22
2023-04-22T15:07:13.401Z,99574.53
2023-04-22T15:09:43.095Z,99576.47
2023-04-22T15:12:11.226Z,99577.47
2023-04-22T15:14:39.966Z,99583.28
2023-04-22T15:17:08.198Z,99580.22
2023-04-22T15:19:36.359Z,99583.03
2023-04-22T15:22:04.035Z,99578.03
2023-04-22T15:24:32.045Z,99579.34
2023-04-22T15:27:02.890Z,99575.00
2023-04-22T15:29:32.370Z,99572.75
2023-04-22T15:32:00.205Z,99578.56
2023-04-22T15:34:27.932Z,99585.06
2023-04-22T15:36:55.762Z,99578.69
2023-04-22T15:39:25.247Z,99579.38
2023-04-22T15:41:53.357Z,99577.19
2023-04-22T15:44:23.488Z,99572.03
2023-04-22T15:46:52.966Z,99569.13
2023-04-22T15:49:21.160Z,99570.09
2023-04-22T15:51:48.938Z,99574.28
2023-04-22T15:54:17.386Z,99569.00
2023-04-22T15:56:45.423Z,99573.94
2023-04-22T15:59:13.508Z,99571.63
2023-04-22T16:01:45.861Z,99572.88
2023-04-22T16:04:14.230Z,99577.34
2023-04-22T16:06:42.282Z,99571.09
2023-04-22T16:09:10.758Z,99573.31
2023-04-22T16:11:38.773Z,99576.53
2023-04-22T16:14:06.420Z,99569.72
2023-04-22T16:16:34.795Z,99567.22
2023-04-22T16:19:03.912Z,99564.97
2023-04-22T16:21:32.399Z,99568.84
2023-04-22T16:24:00.959Z,99567.44
2023-04-22T16:26:29.064Z,99578.66
2023-04-22T16:28:56.786Z,99587.22
2023-04-22T16:31:25.125Z,99578.63
2023-04-22T16:33:53.223Z,99575.59
2023-04-22T16:36:22.750Z,99578.34
2023-04-22T16:38:50.866Z,99577.06
2023-04-22T16:41:19.033Z,99574.84
2023-04-22T16:43:46.739Z,99579.66
2023-04-22T16:46:14.716Z,99576.59
2023-04-22T16:48:43.386Z,99572.94
2023-04-22T16:51:11.917Z,99571.06
2023-04-22T16:53:41.290Z,99572.72
2023-04-22T16:56:08.985Z,99579.19
2023-04-22T16:58:36.902Z,99574.59
2023-04-22T17:01:05.328Z,99575.75
2023-04-22T17:03:33.426Z,99578.50
2023-04-22T17:06:01.484Z,99583.63
2023-04-22T17:08:29.326Z,99583.00
2023-04-22T17:10:58.769Z,99584.41
2023-04-22T17:13:26.817Z,99589.31
2023-04-22T17:15:54.827Z,99598.78
2023-04-22T17:18:22.922Z,99588.38
2023-04-22T17:20:50.718Z,99593.78
2023-04-22T17:23:19.734Z,99593.31
2023-04-22T17:25:47.788Z,99596.72
2023-04-22T17:28:17.308Z,99596.00
2023-04-22T17:30:45.191Z,99596.78
2023-04-22T17:33:13.108Z,99605.50
2023-04-22T17:35:41.882Z,99607.06
2023-04-22T17:38:09.566Z,99612.19
2023-04-22T17:40:37.404Z,99606.56
2023-04-22T17:43:05.156Z,99614.59
2023-04-22T17:45:35.053Z,99609.41
2023-04-22T17:48:02.896Z,99609.09
2023-04-22T17:50:30.889Z,99616.84
2023-04-22T17:53:01.185Z,99611.13
2023-04-22T17:55:30.310Z,99614.28
2023-04-22T17:58:00.352Z,99623.91
2023-04-22T18:00:28.309Z,99629.19
2023-04-22T18:02:57.699Z,99631.13
2023-04-22T18:05:26.994Z,99630.53
2023-04-22T18:07:58.116Z,99632.78
2023-04-22T18:10:25.974Z,99636.84
2023-04-22T18:12:54.821Z,99635.53
2023-04-22T18:15:23.433Z,99632.03
2023-04-22T18:17:51.308Z,99638.81
2023-04-22T18:20:21.844Z,99641.41
2023-04-22T18:22:51.973Z,99633.69
2023-04-22T18:25:21.688Z,99646.84
2023-04-22T18:27:50.575Z,99655.34
2023-04-22T18:30:18.424Z,99651.06
2023-04-22T18:32:46.172Z,99661.66
2023-04-22T18:35:15.788Z,99657.00
2023-04-22T18:37:44.895Z,99663.44
2023-04-22T18:40:13.718Z,99671.72
2023-04-22T18:42:44.512Z,99677.28
2023-04-22T18:45:12.841Z,99679.91
2023-04-22T18:47:41.297Z,99677.03
2023-04-22T18:50:09.723Z,99685.53
2023-04-22T18:52:37.924Z,99678.00
2023-04-22T18:55:07.648Z,99677.41
2023-04-22T18:57:35.705Z,99688.75
2023-04-22T19:00:05.517Z,99693.50
2023-04-22T19:02:35.543Z,99694.44
2023-04-22T19:05:06.339Z,99695.63
2023-04-22T19:07:34.040Z,99698.09
2023-04-22T19:10:01.919Z,99698.47
2023-04-22T19:12:31.117Z,99697.97
2023-04-22T19:15:00.210Z,99693.41
2023-04-22T19:17:28.842Z,99700.78
2023-04-22T19:19:56.603Z,99704.16
2023-04-22T19:22:24.695Z,99706.28
2023-04-22T19:24:52.559Z,99703.03
2023-04-22T19:27:20.345Z,99699.69
2023-04-22T19:29:51.680Z,99711.91
2023-04-22T19:32:19.788Z,99706.44
2023-04-22T19:34:50.007Z,99703.44
2023-04-22T19:37:18.179Z,99706.41
2023-04-22T19:39:45.982Z,99710.81
2023-04-22T19:42:14.099Z,99710.38
2023-04-22T19:44:46.396Z,99704.72
2023-04-22T19:47:16.340Z,99713.44
2023-04-22T19:49:44.883Z,99715.22
2023-04-22T19:52:15.407Z,99714.94
2023-04-22T19:54:47.671Z,99719.00
2023-04-22T19:57:16.686Z,99711.75
2023-04-22T19:59:46.976Z,99716.84
2023-04-22T20:02:16.647Z,99715.50
2023-04-22T20:04:47.319Z,99718.13
2023-04-22T20:07:16.411Z,99720.75
2023-04-22T20:09:46.260Z,99718.28
2023-04-22T20:12:14.489Z,99721.00
2023-04-22T20:14:43.292Z,99722.31
2023-04-22T20:17:11.569Z,99727.25
2023-04-22T20:19:41.116Z,99724.03
2023-04-22T20:22:11.540Z,99724.66
2023-04-22T20:24:40.955Z,99730.44
2023-04-22T20:27:08.833Z,99728.44
2023-04-22T20:29:38.165Z,99720.50
2023-04-22T20:32:07.191Z,99716.81
2023-04-22T20:34:35.993Z,99722.19
2023-04-22T20:37:09.569Z,99720.41
2023-04-22T20:39:38.776Z,99723.06
2023-04-22T20:42:07.470Z,99725.34
2023-04-22T20:44:35.709Z,99726.41
2023-04-22T20:47:03.339Z,99725.56
2023-04-22T20:49:31.241Z,99732.22
2023-04-22T20:52:00.426Z,99734.22
2023-04-22T20:54:30.396Z,99730.25
2023-04-22T20:56:58.849Z,99735.25
2023-04-22T20:59:26.565Z,99725.34
2023-04-22T21:01:55.416Z,99719.06
2023-04-22T21:04:23.994Z,99718.13
2023-04-22T21:06:53.357Z,99716.44
2023-04-22T21:09:22.784Z,99714.97
2023-04-22T21:11:52.396Z,99717.88
2023-04-22T21:14:22.141Z,99709.84
2023-04-22T21:16:58.769Z,99712.75
2023-04-22T21:19:27.355Z,99711.69
2023-04-22T21:21:59.337Z,99710.22
2023-04-22T21:24:28.416Z,99708.66
2023-04-22T21:26:58.984Z,99722.03
2023-04-22T21:29:27.191Z,99706.72
2023-04-22T21:32:08.190Z,99702.91
2023-04-22T21:34:38.615Z,99708.16
2023-04-22T21:37:07.898Z,99705.84
2023-04-22T21:39:36.747Z,99702.13
2023-04-22T21:42:08.137Z,99706.66
2023-04-22T21:44:37.751Z,99702.06
2023-04-22T21:47:06.888Z,99714.38
2023-04-22T21:49:34.936Z,99709.06
2023-04-22T21:52:02.915Z,99715.22
2023-04-22T21:54:30.655Z,99717.53
2023-04-22T21:56:58.672Z,99714.63
2023-04-22T21:59:27.842Z,99713.34
2023-04-22T22:01:55.960Z,99718.75
2023-04-22T22:04:23.703Z,99723.53
2023-04-22T22:06:51.498Z,99722.34
2023-04-22T22:09:19.227Z,99727.00
2023-04-22T22:11:47.065Z,99727.00
2023-04-22T22:14:14.834Z,99722.53
2023-04-22T22:16:45.031Z,99731.38
2023-04-22T22:19:13.895Z,99736.72
2023-04-22T22:21:41.944Z,99736.53
2023-04-22T22:24:10.477Z,99733.31
2023-04-22T22:26:40.952Z,99738.81
2023-04-22T22:29:15.066Z,99743.13
2023-04-22T22:31:44.256Z,99744.16
2023-04-22T22:34:12.361Z,99739.13
2023-04-22T22:36:40.167Z,99734.66
2023-04-22T22:39:10.101Z,99736.34
2023-04-22T22:41:39.694Z,99734.94
2023-04-22T22:44:08.688Z,99735.22
2023-04-22T22:46:38.366Z,99735.22
2023-04-22T22:49:07.489Z,99735.41
2023-04-22T22:51:37.503Z,99739.13
2023-04-22T22:54:05.831Z,99742.59
2023-04-22T22:56:33.593Z,99743.06
2023-04-22T22:59:01.442Z,99747.34
2023-04-22T23:01:29.255Z,99739.69
2023-04-22T23:03:57.228Z,99742.13
2023-04-22T23:06:27.211Z,99736.16
2023-04-22T23:08:54.890Z,99741.19
2023-04-22T23:11:23.010Z,99741.94
2023-04-22T23:13:51.054Z,99737.56
2023-04-22T23:16:18.953Z,99733.06
2023-04-22T23:18:47.694Z,99735.88
2023-04-22T23:21:16.257Z,99733.53
2023-04-22T23:23:46.234Z,99737.75
2023-04-22T23:26:14.340Z,99735.97
2023-04-22T23:28:42.717Z,99726.56
2023-04-22T23:31:11.552Z,99726.38
2023-04-22T23:33:43.157Z,99734.09
2023-04-22T23:36:13.800Z,99728.97
2023-04-22T23:38:41.797Z,99729.16
2023-04-22T23:41:11.289Z,99730.09
2023-04-22T23:43:39.061Z,99731.41
2023-04-22T23:46:07.220Z,99725.06
2023-04-22T23:48:35.968Z,99728.59
2023-04-22T23:51:03.994Z,99731.84
2023-04-22T23:53:31.911Z,99723.22
2023-04-22T23:56:00.863Z,99721.41
2023-04-22T23:58:30.426Z,99723.09
